Welcome to Northern Hawkes Bay. New Zealand.
PWS Header
      nz Flag



Hit Counter


W3C Valid W3C Valid logo


    Wairoa

Select any of the Stations below to visit their websites.










Historic Data from Weather Underground
Select the location of interest below. Wairoa is the default. Please have patience, this Data is slow to load in.
Northern Hawkes Bay Historical Data
Daily Summary for April 8, 2017 Units:  English    Metric   Both
« Previous Day
Next Day »
Daily Weekly Monthly Yearly Custom
  High: Low: Average:
Temperature: 63.1 °F 52.2 °F 57.6 °F
Dew Point: 53.2 °F 45 °F 49.5 °F
Humidity: 92% 65% 75%
Wind Speed: 11.4mph 0mph 2.9mph
Wind Gust: 16.8mph - -
Wind- - WSW
Pressure: 30.4 in 30.3 in -
Precipitation: 0 in    
Historical Graphs
 
 
Tabular Data for April 8, 2017
Time Temperature Dew Point Pressure Wind Wind Speed Wind Gust Humidity Rainfall Rate (Hourly) solar
00:01 55.8 °F 48.7 °F 30.3 in WSW 6 mph 11.4 mph 77% 0 in 0 W/m2
00:07 55.8 °F 48.7 °F 30.3 in WSW 3.1 mph 10.7 mph 77% 0 in 0 W/m2
00:13 55.6 °F 48.6 °F 30.3 in WNW 3.8 mph 11.4 mph 77% 0 in 0 W/m2
00:19 55.4 °F 48.4 °F 30.3 in West 1.6 mph 9.2 mph 77% 0 in 0 W/m2
00:25 55.4 °F 48.4 °F 30.3 in West 3.1 mph 7.6 mph 77% 0 in 0 W/m2
00:31 55.2 °F 48 °F 30.3 in West 0.7 mph 7.6 mph 77% 0 in 0 W/m2
00:37 55.2 °F 47.8 °F 30.3 in Calm   8.3 mph 76% 0 in 0 W/m2
00:43 55 °F 47.7 °F 30.3 in Calm   8.3 mph 76% 0 in 0 W/m2
00:49 55 °F 47.7 °F 30.3 in Calm   7.6 mph 76% 0 in 0 W/m2
00:55 54.7 °F 47.3 °F 30.3 in Calm   7.6 mph 76% 0 in 0 W/m2
01:01 54.5 °F 47.1 °F 30.3 in Calm   7.6 mph 76% 0 in 0 W/m2
01:07 54.5 °F 47.1 °F 30.3 in Calm   7.6 mph 76% 0 in 0 W/m2
01:13 54.5 °F 46.8 °F 30.3 in Calm   7.6 mph 75% 0 in 0 W/m2
01:19 54.5 °F 46.8 °F 30.3 in West 0.7 mph 6 mph 75% 0 in 0 W/m2
01:25 54.5 °F 46.8 °F 30.3 in Calm   6 mph 75% 0 in 0 W/m2
01:31 54.5 °F 46.4 °F 30.3 in Calm   6 mph 74% 0 in 0 W/m2
01:37 54.5 °F 46 °F 30.3 in Calm   6 mph 73% 0 in 0 W/m2
01:43 54.3 °F 45.9 °F 30.3 in WSW 1.6 mph 5.4 mph 73% 0 in 0 W/m2
01:49 54.3 °F 45.5 °F 30.3 in West 0.7 mph 5.4 mph 72% 0 in 0 W/m2
01:55 54.3 °F 45.5 °F 30.3 in West 0.7 mph 9.2 mph 72% 0 in 0 W/m2
02:01 54.3 °F 45.1 °F 30.3 in West 6 mph 13.6 mph 71% 0 in 0 W/m2
02:07 54.3 °F 45.1 °F 30.3 in West 0.7 mph 13.6 mph 71% 0 in 0 W/m2
02:13 54.3 °F 45.1 °F 30.3 in West 0.7 mph 8.3 mph 71% 0 in 0 W/m2
02:19 54.1 °F 45 °F 30.3 in West 1.6 mph 8.3 mph 71% 0 in 0 W/m2
02:25 54.1 °F 45.3 °F 30.3 in Calm   5.4 mph 72% 0 in 0 W/m2
02:31 54.1 °F 45.3 °F 30.3 in Calm   6 mph 72% 0 in 0 W/m2
02:37 54 °F 45.1 °F 30.3 in Calm   6 mph 72% 0 in 0 W/m2
02:43 54 °F 45.1 °F 30.3 in WNW 1.6 mph 6.9 mph 72% 0 in 0 W/m2
02:49 54.1 °F 45.3 °F 30.3 in Calm   6.9 mph 72% 0 in 0 W/m2
02:55 54.1 °F 45.3 °F 30.3 in Calm   6.9 mph 72% 0 in 0 W/m2
03:01 54.1 °F 45.3 °F 30.3 in Calm   7.6 mph 72% 0 in 0 W/m2
03:07 54.1 °F 45.3 °F 30.3 in Calm   7.6 mph 72% 0 in 0 W/m2
03:13 54.1 °F 45.3 °F 30.3 in Calm   5.4 mph 72% 0 in 0 W/m2
03:19 54.1 °F 45.3 °F 30.3 in Calm   3.1 mph 72% 0 in 0 W/m2
03:25 54.1 °F 45.3 °F 30.3 in NW 1.6 mph 3.8 mph 72% 0 in 0 W/m2
03:31 53.8 °F 45.3 °F 30.3 in Calm   3.8 mph 73% 0 in 0 W/m2
03:37 53.4 °F 45.3 °F 30.3 in Calm   3.8 mph 74% 0 in 0 W/m2
03:43 53.2 °F 45.5 °F 30.3 in NNW 0.7 mph 3.8 mph 75% 0 in 0 W/m2
03:49 53.1 °F 45.7 °F 30.3 in NNW 0.7 mph 3.8 mph 76% 0 in 0 W/m2
03:55 53.1 °F 45.7 °F 30.3 in NW 0.7 mph 4.5 mph 76% 0 in 0 W/m2
04:01 53.1 °F 45.7 °F 30.3 in NW 1.6 mph 4.5 mph 76% 0 in 0 W/m2
04:07 52.9 °F 45.5 °F 30.3 in NNW 0.7 mph 4.5 mph 76% 0 in 0 W/m2
04:13 53.1 °F 45.7 °F 30.3 in NNW 2.2 mph 4.5 mph 76% 0 in 0 W/m2
04:19 52.9 °F 45.5 °F 30.3 in NNW 0.7 mph 4.5 mph 76% 0 in 0 W/m2
04:25 52.9 °F 45.5 °F 30.3 in Calm   4.5 mph 76% 0 in 0 W/m2
04:31 52.9 °F 45.5 °F 30.3 in Calm   4.5 mph 76% 0 in 0 W/m2
04:37 52.9 °F 45.5 °F 30.3 in Calm   3.8 mph 76% 0 in 0 W/m2
04:43 52.9 °F 45.5 °F 30.3 in Calm   3.8 mph 76% 0 in 0 W/m2
04:49 52.9 °F 45.9 °F 30.3 in NNW 1.6 mph 3.1 mph 77% 0 in 0 W/m2
04:55 52.7 °F 45.7 °F 30.3 in NNW 0.7 mph 3.1 mph 77% 0 in 0 W/m2
05:01 52.5 °F 45.9 °F 30.3 in NNW 2.2 mph 3.1 mph 78% 0 in 0 W/m2
05:07 52.5 °F 46.2 °F 30.3 in NNW 0.7 mph 3.8 mph 79% 0 in 0 W/m2
05:13 52.5 °F 46.6 °F 30.3 in Calm   3.8 mph 80% 0 in 0 W/m2
05:19 52.3 °F 46.4 °F 30.3 in North 0.7 mph 4.5 mph 80% 0 in 0 W/m2
05:25 52.5 °F 46.6 °F 30.3 in Calm   4.5 mph 80% 0 in 0 W/m2
05:31 52.5 °F 46.9 °F 30.3 in North 0.7 mph 3.8 mph 81% 0 in 0 W/m2
05:37 52.7 °F 46.8 °F 30.3 in Calm   3.1 mph 80% 0 in 0 W/m2
05:43 52.7 °F 46.8 °F 30.3 in Calm   3.1 mph 80% 0 in 0 W/m2
05:49 52.5 °F 46.6 °F 30.3 in Calm   2.2 mph 80% 0 in 0 W/m2
05:55 52.5 °F 46.6 °F 30.3 in Calm   2.2 mph 80% 0 in 0 W/m2
06:01 52.3 °F 46.8 °F 30.3 in Calm   0.7 mph 81% 0 in 0 W/m2
06:07 52.2 °F 46.6 °F 30.3 in Calm   0.7 mph 81% 0 in 0 W/m2
06:13 52.2 °F 46.8 °F 30.3 in Calm     82% 0 in 0 W/m2
06:19 52.2 °F 46.8 °F 30.3 in Calm     82% 0 in 0 W/m2
06:25 52.2 °F 46.8 °F 30.3 in Calm     82% 0 in 0 W/m2
06:31 52.2 °F 46.8 °F 30.4 in Calm     82% 0 in 1 W/m2
06:37 52.3 °F 46.9 °F 30.4 in Calm     82% 0 in 3 W/m2
06:43 52.5 °F 47.1 °F 30.3 in NNW 3.1 mph 5.4 mph 82% 0 in 3 W/m2
06:49 52.7 °F 47.5 °F 30.4 in NNW 0.7 mph 5.4 mph 82% 0 in 7 W/m2
06:55 52.9 °F 47.1 °F 30.4 in NW 0.7 mph 4.5 mph 81% 0 in 11 W/m2
07:01 52.9 °F 47.1 °F 30.4 in NNW 0.7 mph 5.4 mph 81% 0 in 18 W/m2
07:07 52.9 °F 47.1 °F 30.4 in NNW 1.6 mph 5.4 mph 81% 0 in 23 W/m2
07:13 53.1 °F 47.5 °F 30.4 in North 2.2 mph 5.4 mph 81% 0 in 32 W/m2
07:19 53.2 °F 47.7 °F 30.4 in NNW 3.1 mph 6 mph 81% 0 in 41 W/m2
07:25 53.4 °F 47.7 °F 30.4 in Calm   6 mph 81% 0 in 49 W/m2
07:31 53.8 °F 47.5 °F 30.4 in NNW 1.6 mph 4.5 mph 79% 0 in 58 W/m2
07:37 54.1 °F 48 °F 30.4 in NNW 0.7 mph 3.1 mph 80% 0 in 65 W/m2
07:43 54.3 °F 48.4 °F 30.4 in NNW 0.7 mph 3.8 mph 80% 0 in 66 W/m2
07:49 54.5 °F 48.6 °F 30.4 in NNW 2.2 mph 3.8 mph 80% 0 in 81 W/m2
07:55 54.5 °F 48 °F 30.4 in NNW 2.2 mph 5.4 mph 79% 0 in 89 W/m2
08:01 54.9 °F 48 °F 30.4 in NNW 1.6 mph 5.4 mph 78% 0 in 86 W/m2
08:07 55.4 °F 48.7 °F 30.4 in Calm   4.5 mph 78% 0 in 100 W/m2
08:13 55.6 °F 48.6 °F 30.4 in NNW 2.2 mph 6 mph 77% 0 in 256 W/m2
08:19 56.1 °F 48.9 °F 30.4 in NNW 2.2 mph 6 mph 77% 0 in 145 W/m2
08:25 56.3 °F 48.7 °F 30.4 in NNW 0.7 mph 4.5 mph 76% 0 in 83 W/m2
08:31 56.1 °F 48.7 °F 30.4 in NNW 2.2 mph 4.5 mph 76% 0 in 65 W/m2
08:37 55.8 °F 48.4 °F 30.4 in NNW 1.6 mph 6.9 mph 76% 0 in 68 W/m2
08:43 55.9 °F 48.7 °F 30.4 in Calm   6.9 mph 77% 0 in 67 W/m2
08:49 56.3 °F 49.3 °F 30.4 in NW 0.7 mph 3.8 mph 77% 0 in 53 W/m2
08:55 56.3 °F 49.3 °F 30.4 in Calm   2.2 mph 77% 0 in 49 W/m2
09:01 56.3 °F 49.3 °F 30.4 in Calm   1.6 mph 77% 0 in 51 W/m2
09:07 56.5 °F 49.5 °F 30.4 in Calm   1.6 mph 77% 0 in 54 W/m2
09:13 56.5 °F 49.6 °F 30.4 in NW 0.7 mph 3.8 mph 78% 0 in 68 W/m2
09:19 56.7 °F 49.8 °F 30.4 in West 9.2 mph 10.7 mph 78% 0 in 76 W/m2
09:25 57.9 °F 51.4 °F 30.4 in West 4.5 mph 10.7 mph 79% 0 in 73 W/m2
09:31 58.8 °F 51.6 °F 30.4 in SW 7.6 mph 14.5 mph 77% 0 in 94 W/m2
09:37 59 °F 51.1 °F 30.4 in SW 7.6 mph 14.5 mph 75% 0 in 115 W/m2
09:43 59.2 °F 51.3 °F 30.4 in WSW 3.8 mph 12.1 mph 75% 0 in 143 W/m2
09:49 59.5 °F 51.6 °F 30.4 in WSW 3.8 mph 13 mph 75% 0 in 162 W/m2
09:55 59.7 °F 51.8 °F 30.4 in West 4.5 mph 13 mph 75% 0 in 189 W/m2
10:01 60.1 °F 52.2 °F 30.4 in West 4.5 mph 13 mph 75% 0 in 196 W/m2
10:07 60.1 °F 51.8 °F 30.4 in SW 3.8 mph 13 mph 74% 0 in 198 W/m2
10:13 60.3 °F 52.3 °F 30.4 in SW 3.8 mph 12.1 mph 75% 0 in 228 W/m2
10:19 61 °F 52.3 °F 30.4 in SW 6 mph 9.8 mph 73% 0 in 240 W/m2
10:25 61.3 °F 51.1 °F 30.4 in SW 8.3 mph 13 mph 69% 0 in 257 W/m2
10:31 61.5 °F 50.5 °F 30.4 in SSW 7.6 mph 14.5 mph 67% 0 in 268 W/m2
10:37 61.7 °F 51.4 °F 30.4 in SSW 7.6 mph 14.5 mph 69% 0 in 276 W/m2
10:43 61.7 °F 51.4 °F 30.4 in SW 9.2 mph 12.1 mph 69% 0 in 284 W/m2
10:49 61.7 °F 51.4 °F 30.4 in SW 3.8 mph 11.4 mph 69% 0 in 279 W/m2
10:55 61.7 °F 51.4 °F 30.4 in SW 5.4 mph 15.2 mph 69% 0 in 295 W/m2
11:01 61.9 °F 52 °F 30.4 in SW 6.9 mph 15.2 mph 70% 0 in 306 W/m2
11:07 62.1 °F 51.8 °F 30.4 in SW 6.9 mph 14.5 mph 69% 0 in 318 W/m2
11:13 61.9 °F 51.3 °F 30.4 in SSW 6.9 mph 13 mph 68% 0 in 361 W/m2
11:19 62.2 °F 52.3 °F 30.4 in Calm   13 mph 70% 0 in 359 W/m2
11:25 62.2 °F 51.6 °F 30.4 in SW 4.5 mph 13.6 mph 68% 0 in 360 W/m2
11:31 63 °F 52.3 °F 30.4 in SW 6.9 mph 13.6 mph 68% 0 in 393 W/m2
11:37 62.6 °F 52.3 °F 30.4 in SW 4.5 mph 11.4 mph 69% 0 in 418 W/m2
11:43 62.8 °F 52.2 °F 30.4 in SW 3.8 mph 11.4 mph 68% 0 in 437 W/m2
11:49 63.1 °F 52.9 °F 30.4 in SW 8.3 mph 11.4 mph 69% 0 in 447 W/m2
11:55 62.6 °F 52.3 °F 30.4 in WSW 3.8 mph 13.6 mph 69% 0 in 450 W/m2
12:01 62.8 °F 52.2 °F 30.4 in SW 6.9 mph 14.5 mph 68% 0 in 386 W/m2
12:07 62.2 °F 53.1 °F 30.4 in WSW 6 mph 14.5 mph 72% 0 in 308 W/m2
12:13 62.1 °F 52.5 °F 30.4 in SW 8.3 mph 15.9 mph 71% 0 in 392 W/m2
12:19 62.4 °F 52.9 °F 30.4 in SW 9.2 mph 15.9 mph 71% 0 in 350 W/m2
12:25 62.8 °F 52.2 °F 30.4 in SW 7.6 mph 12.1 mph 68% 0 in 187 W/m2
12:31 62.1 °F 52.5 °F 30.4 in SSW 6.9 mph 11.4 mph 71% 0 in 167 W/m2
12:37 61.7 °F 52.5 °F 30.4 in SSW 4.5 mph 11.4 mph 72% 0 in 183 W/m2
12:43 61.9 °F 52.9 °F 30.4 in SSW 10.7 mph 15.9 mph 72% 0 in 205 W/m2
12:49 61.7 °F 52.2 °F 30.4 in SW 6 mph 15.9 mph 71% 0 in 298 W/m2
12:55 62.6 °F 51.4 °F 30.4 in SW 8.3 mph 15.2 mph 67% 0 in 370 W/m2
13:01 62.6 °F 50.7 °F 30.4 in SSW 9.2 mph 15.2 mph 65% 0 in 172 W/m2
13:07 62.1 °F 51.4 °F 30.4 in South 7.6 mph 15.2 mph 68% 0 in 114 W/m2
13:13 61.3 °F 50.7 °F 30.4 in SSW 8.3 mph 13.6 mph 68% 0 in 122 W/m2
13:19 61.2 °F 49.6 °F 30.4 in SSW 9.2 mph 13.6 mph 66% 0 in 143 W/m2
13:25 61.2 °F 49.6 °F 30.4 in SSW 8.3 mph 13.6 mph 66% 0 in 149 W/m2
13:31 61.3 °F 49.8 °F 30.4 in SSW 3.8 mph 13.6 mph 66% 0 in 165 W/m2
13:37 61.5 °F 50.9 °F 30.4 in SSW 7.6 mph 13 mph 68% 0 in 172 W/m2
13:43 61.5 °F 50.5 °F 30.4 in SSW 6.9 mph 13.6 mph 67% 0 in 179 W/m2
13:49 61.5 °F 50.9 °F 30.4 in SSW 11.4 mph 13.6 mph 68% 0 in 219 W/m2
13:55 61.7 °F 51.8 °F 30.4 in South 8.3 mph 14.5 mph 70% 0 in 203 W/m2
14:01 61.7 °F 51.1 °F 30.4 in South 9.2 mph 14.5 mph 68% 0 in 217 W/m2
14:07 61.9 °F 50.7 °F 30.4 in SSW 4.5 mph 15.2 mph 67% 0 in 226 W/m2
14:13 62.1 °F 51.4 °F 30.4 in SSW 5.4 mph 16.8 mph 68% 0 in 216 W/m2
14:19 62.1 °F 51.1 °F 30.4 in SSW 4.5 mph 15.2 mph 67% 0 in 211 W/m2
14:25 62.2 °F 51.3 °F 30.4 in SSW 8.3 mph 15.2 mph 67% 0 in 216 W/m2
14:31 62.4 °F 51.3 °F 30.4 in SSW 8.3 mph 13 mph 67% 0 in 223 W/m2
14:37 62.2 °F 50.7 °F 30.4 in South 7.6 mph 13 mph 66% 0 in 204 W/m2
14:43 62.1 °F 50.2 °F 30.4 in South 9.2 mph 13 mph 65% 0 in 185 W/m2
14:49 62.1 °F 50.2 °F 30.4 in SSW 2.2 mph 12.1 mph 65% 0 in 163 W/m2
14:55 61.9 °F 50.7 °F 30.4 in South 10.7 mph 14.5 mph 67% 0 in 137 W/m2
15:01 61.3 °F 51.1 °F 30.4 in SSW 7.6 mph 14.5 mph 69% 0 in 127 W/m2
15:07 61.2 °F 52.2 °F 30.4 in SSW 6 mph 13 mph 72% 0 in 118 W/m2
15:13 61 °F 52 °F 30.4 in South 8.3 mph 14.5 mph 72% 0 in 135 W/m2
15:19 60.8 °F 51.1 °F 30.4 in South 8.3 mph 14.5 mph 70% 0 in 137 W/m2
15:25 61 °F 51.1 °F 30.4 in South 5.4 mph 14.5 mph 70% 0 in 143 W/m2
15:31 61.2 °F 50.5 °F 30.4 in SSW 8.3 mph 13.6 mph 68% 0 in 134 W/m2
15:37 61.2 °F 50.2 °F 30.4 in SSW 3.8 mph 14.5 mph 67% 0 in 138 W/m2
15:43 61.2 °F 50.2 °F 30.4 in SSW 6 mph 13 mph 67% 0 in 136 W/m2
15:49 61.2 °F 50.5 °F 30.4 in South 8.3 mph 13 mph 68% 0 in 130 W/m2
15:55 61.2 °F 50.9 °F 30.4 in South 6 mph 13 mph 69% 0 in 128 W/m2
16:01 61.3 °F 50.4 °F 30.4 in South 9.2 mph 12.1 mph 67% 0 in 126 W/m2
16:07 61.3 °F 51.1 °F 30.4 in South 7.6 mph 12.1 mph 69% 0 in 114 W/m2
16:13 61.3 °F 51.1 °F 30.4 in SSW 6 mph 9.8 mph 69% 0 in 122 W/m2
16:19 61.3 °F 50.7 °F 30.4 in SSW 4.5 mph 11.4 mph 68% 0 in 114 W/m2
16:25 61.5 °F 50.9 °F 30.4 in South 8.3 mph 11.4 mph 68% 0 in 103 W/m2
16:31 61.3 °F 50.4 °F 30.4 in South 6 mph 11.4 mph 67% 0 in 89 W/m2
16:37 61 °F 50 °F 30.4 in South 5.4 mph 11.4 mph 67% 0 in 80 W/m2
16:43 61 °F 50.4 °F 30.4 in South 3.1 mph 9.8 mph 68% 0 in 74 W/m2
16:49 60.8 °F 49.8 °F 30.4 in South 3.8 mph 9.8 mph 67% 0 in 55 W/m2
16:55 60.6 °F 50 °F 30.4 in South 5.4 mph 9.8 mph 68% 0 in 49 W/m2
17:01 60.6 °F 50 °F 30.4 in South 5.4 mph 9.2 mph 68% 0 in 36 W/m2
17:07 60.3 °F 49.6 °F 30.4 in South 3.8 mph 9.2 mph 68% 0 in 25 W/m2
17:13 60.3 °F 49.3 °F 30.4 in South 3.8 mph 9.8 mph 67% 0 in 21 W/m2
17:19 60.3 °F 49.6 °F 30.4 in South 4.5 mph 7.6 mph 68% 0 in 20 W/m2
17:25 60.3 °F 49.6 °F 30.4 in South 3.1 mph 8.3 mph 68% 0 in 17 W/m2
17:31 60.3 °F 49.6 °F 30.4 in South 3.8 mph 8.3 mph 68% 0 in 13 W/m2
17:37 60.1 °F 49.8 °F 30.4 in South 4.5 mph 6.9 mph 69% 0 in 8 W/m2
17:43 60.1 °F 50.7 °F 30.4 in South 3.8 mph 9.2 mph 71% 0 in 4 W/m2
17:49 59.9 °F 51.3 °F 30.4 in Calm   9.2 mph 73% 0 in 1 W/m2
17:55 59.7 °F 51.4 °F 30.4 in SSE 1.6 mph 6 mph 74% 0 in 0 W/m2
18:01 59.5 °F 51.3 °F 30.4 in SE 3.8 mph 8.3 mph 74% 0 in 0 W/m2
18:07 59.5 °F 51.3 °F 30.4 in SE 3.1 mph 6 mph 74% 0 in 0 W/m2
18:13 59.4 °F 51.1 °F 30.4 in ESE 2.2 mph 5.4 mph 74% 0 in 0 W/m2
18:19 59.4 °F 51.1 °F 30.4 in SE 1.6 mph 4.5 mph 74% 0 in 0 W/m2
18:25 59.4 °F 51.1 °F 30.4 in SE 1.6 mph 6 mph 74% 0 in 0 W/m2
18:31 59.4 °F 51.1 °F 30.4 in SE 0.7 mph 6 mph 74% 0 in 0 W/m2
18:37 59.2 °F 51.3 °F 30.4 in ESE 0.7 mph 4.5 mph 75% 0 in 0 W/m2
18:43 59 °F 51.1 °F 30.4 in Calm   3.8 mph 75% 0 in 0 W/m2
18:49 58.8 °F 51.3 °F 30.4 in SE 1.6 mph 3.8 mph 76% 0 in 0 W/m2
18:55 58.8 °F 51.3 °F 30.4 in ESE 2.2 mph 6 mph 76% 0 in 0 W/m2
19:01 59 °F 51.1 °F 30.4 in Calm   6 mph 75% 0 in 0 W/m2
19:07 59 °F 50.7 °F 30.4 in Calm   5.4 mph 74% 0 in 0 W/m2
19:13 59 °F 50.7 °F 30.4 in SSE 4.5 mph 7.6 mph 74% 0 in 0 W/m2
19:19 59.2 °F 51.3 °F 30.4 in SSE 3.1 mph 9.2 mph 75% 0 in 0 W/m2
19:25 59.2 °F 51.3 °F 30.4 in SE 2.2 mph 10.7 mph 75% 0 in 0 W/m2
19:31 59 °F 51.1 °F 30.4 in SE 3.8 mph 10.7 mph 75% 0 in 0 W/m2
19:37 59 °F 51.1 °F 30.4 in SE 0.7 mph 10.7 mph 75% 0 in 0 W/m2
19:43 59 °F 50.7 °F 30.4 in SSE 3.1 mph 10.7 mph 74% 0 in 0 W/m2
19:49 59 °F 50.7 °F 30.4 in SSE 0.7 mph 7.6 mph 74% 0 in 0 W/m2
19:55 59 °F 50.7 °F 30.4 in SE 4.5 mph 7.6 mph 74% 0 in 0 W/m2
20:01 59 °F 50.4 °F 30.4 in SE 0.7 mph 7.6 mph 73% 0 in 0 W/m2
20:07 59 °F 49.6 °F 30.4 in SE 2.2 mph 7.6 mph 71% 0 in 0 W/m2
20:13 59 °F 49.6 °F 30.4 in Calm   7.6 mph 71% 0 in 0 W/m2
20:19 59 °F 49.3 °F 30.4 in SSE 0.7 mph 6.9 mph 70% 0 in 0 W/m2
20:25 59 °F 49.3 °F 30.4 in Calm   6.9 mph 70% 0 in 0 W/m2
20:31 58.8 °F 49.8 °F 30.4 in Calm   2.2 mph 72% 0 in 0 W/m2
20:37 58.8 °F 49.8 °F 30.4 in Calm   1.6 mph 72% 0 in 0 W/m2
20:43 58.6 °F 50 °F 30.4 in Calm   1.6 mph 73% 0 in 0 W/m2
20:49 58.6 °F 50.4 °F 30.4 in ENE 1.6 mph 3.8 mph 74% 0 in 0 W/m2
20:55 58.6 °F 50.7 °F 30.4 in Calm   3.8 mph 75% 0 in 0 W/m2
21:01 58.3 °F 50.4 °F 30.4 in Calm   3.1 mph 75% 0 in 0 W/m2
21:07 57.9 °F 50.4 °F 30.4 in Calm   3.8 mph 76% 0 in 0 W/m2
21:13 57.7 °F 50.5 °F 30.4 in Calm     77% 0 in 0 W/m2
21:19 57.2 °F 50.4 °F 30.4 in Calm     78% 0 in 0 W/m2
21:25 57 °F 51.3 °F 30.4 in Calm     81% 0 in 0 W/m2
21:31 56.8 °F 51.4 °F 30.4 in Calm   3.1 mph 82% 0 in 0 W/m2
21:37 56.7 °F 50.9 °F 30.4 in Calm   2.2 mph 81% 0 in 0 W/m2
21:43 56.5 °F 50.7 °F 30.4 in Calm   0.7 mph 81% 0 in 0 W/m2
21:49 56.5 °F 50.7 °F 30.4 in Calm   0.7 mph 81% 0 in 0 W/m2
21:55 56.5 °F 50.4 °F 30.4 in Calm   0.7 mph 80% 0 in 0 W/m2
22:01 56.5 °F 50.7 °F 30.4 in Calm     81% 0 in 0 W/m2
22:07 56.5 °F 50.7 °F 30.4 in Calm   0.7 mph 81% 0 in 0 W/m2
22:13 56.5 °F 51.1 °F 30.4 in Calm   0.7 mph 82% 0 in 0 W/m2
22:19 56.5 °F 51.4 °F 30.4 in Calm   0.7 mph 83% 0 in 0 W/m2
22:25 56.3 °F 51.4 °F 30.4 in Calm     84% 0 in 0 W/m2
22:31 56.1 °F 51.6 °F 30.4 in Calm   3.1 mph 85% 0 in 0 W/m2
22:37 55.9 °F 51.8 °F 30.4 in Calm   3.8 mph 86% 0 in 0 W/m2
22:43 55.9 °F 52.2 °F 30.4 in NW 1.6 mph 3.8 mph 87% 0 in 0 W/m2
22:49 55.9 °F 52.3 °F 30.4 in NNW 1.6 mph 3.8 mph 88% 0 in 0 W/m2
22:55 55.9 °F 52.3 °F 30.4 in NNW 2.2 mph 5.4 mph 88% 0 in 0 W/m2
23:01 55.9 °F 52.9 °F 30.4 in NW 4.5 mph 6 mph 89% 0 in 0 W/m2
23:07 55.9 °F 53.1 °F 30.4 in NW 3.8 mph 6.9 mph 90% 0 in 0 W/m2
23:13 55.8 °F 52.9 °F 30.4 in NNW 2.2 mph 6.9 mph 90% 0 in 0 W/m2
23:19 55.8 °F 53.2 °F 30.4 in NNW 0.7 mph 6 mph 91% 0 in 0 W/m2
23:25 55.8 °F 53.2 °F 30.4 in NNW 0.7 mph 5.4 mph 91% 0 in 0 W/m2
23:32 55.6 °F 53.1 °F 30.4 in NNW 1.6 mph 3.8 mph 91% 0 in 0 W/m2
23:38 55.6 °F 53.1 °F 30.4 in Calm   3.8 mph 91% 0 in 0 W/m2
23:46 55.4 °F 52.9 °F 30.4 in NNW 2.2 mph 3.8 mph 91% 0 in 0 W/m2
23:52 55.4 °F 53.1 °F 30.4 in Calm   3.8 mph 92% 0 in 0 W/m2
23:58 55.4 °F 53.1 °F 30.4 in Calm   3.1 mph 92% 0 in 0 W/m2
Northern Hawkes Bay. New Zealand Historic Data
Compliments of Weather Underground - 2 mb